Weather at Çardak Highway Strip

Public forecast

Using degrees Celsius for public forecast. Weather courtesy of forecast.io.

Closest aviation weather report (METAR) to Çardak Highway Strip

Closest report is Çardak Airport, 3.9 nm (7.3 km) SE. Retrieved 2021/01/28 00:50 UTC (30 minutes ago):

LTAY 280050Z 31006KT 280V350 9999 SCT030 BKN090 M00/M03 Q1006

Closest aviation forecast (TAF) to Çardak Highway Strip

Closest forecast is Süleyman Demirel International Airport, 34.7 nm (64.2 km) E. Retrieved 2021-01-28 00:03 UTC (1 hour ago):

TAF LTFC 272240Z 2800/2824 22014KT 9999 -SN BKN025 BKN080 BECMG 2806/2810 SCT030 BKN100 BECMG 2810/2814 36006KT BKN025 BKN080 TEMPO 2816/2820 4000 SN